createdAt,value
2022-12-11T00:00:08.404Z,100801.63
2022-12-11T00:02:35.207Z,100794.31
2022-12-11T00:05:02.144Z,100793.16
2022-12-11T00:07:28.885Z,100809.84
2022-12-11T00:09:55.549Z,100802.44
2022-12-11T00:12:22.650Z,100792.34
2022-12-11T00:14:49.406Z,100788.66
2022-12-11T00:17:16.053Z,100784.81
2022-12-11T00:19:42.700Z,100781.31
2022-12-11T00:22:09.562Z,100790.47
2022-12-11T00:24:36.215Z,100793.69
2022-12-11T00:27:02.924Z,100793.38
2022-12-11T00:29:29.694Z,100789.38
2022-12-11T00:31:56.513Z,100796.44
2022-12-11T00:34:23.233Z,100790.69
2022-12-11T00:36:50.000Z,100776.06
2022-12-11T00:39:16.737Z,100786.25
2022-12-11T00:41:43.606Z,100783.34
2022-12-11T00:44:10.510Z,100785.22
2022-12-11T00:46:37.596Z,100784.19
2022-12-11T00:49:04.489Z,100796.19
2022-12-11T00:51:31.316Z,100804.09
2022-12-11T00:53:57.964Z,100780.16
2022-12-11T00:56:25.451Z,100805.09
2022-12-11T00:58:52.391Z,100798.13
2022-12-11T01:01:22.952Z,100804.84
2022-12-11T01:03:50.092Z,100799.25
2022-12-11T01:06:20.845Z,100816.38
2022-12-11T01:08:48.241Z,100792.97
2022-12-11T01:11:16.621Z,100811.69
2022-12-11T01:13:43.596Z,100804.81
2022-12-11T01:16:13.933Z,100794.69
2022-12-11T01:18:41.078Z,100793.88
2022-12-11T01:21:10.368Z,100799.72
2022-12-11T01:23:37.337Z,100787.88
2022-12-11T01:26:09.699Z,100812.47
2022-12-11T01:28:36.957Z,100791.19
2022-12-11T01:31:08.526Z,100802.00
2022-12-11T01:33:35.219Z,100808.19
2022-12-11T01:36:02.202Z,100799.81
2022-12-11T01:38:28.828Z,100779.50
2022-12-11T01:40:55.463Z,100811.03
2022-12-11T01:43:22.181Z,100791.91
2022-12-11T01:45:49.312Z,100785.47
2022-12-11T01:48:28.841Z,100807.91
2022-12-11T01:51:00.171Z,100820.03
2022-12-11T01:53:31.825Z,100814.88
2022-12-11T01:55:59.335Z,100809.94
2022-12-11T01:58:34.128Z,100799.22
2022-12-11T02:01:03.264Z,100813.41
2022-12-11T02:03:30.045Z,100803.72
2022-12-11T02:06:00.561Z,100782.72
2022-12-11T02:08:27.383Z,100814.88
2022-12-11T02:11:21.888Z,100805.19
2022-12-11T02:14:13.205Z,100808.81
2022-12-11T02:16:57.598Z,100769.31
2022-12-11T02:20:01.672Z,100807.56
2022-12-11T02:22:47.774Z,100792.34
2022-12-11T02:25:46.418Z,100802.50
2022-12-11T02:28:16.338Z,100803.06
2022-12-11T02:30:49.554Z,100788.75
2022-12-11T02:33:20.497Z,100787.94
2022-12-11T02:35:49.215Z,100767.53
2022-12-11T02:38:24.527Z,100782.44
2022-12-11T02:40:53.333Z,100780.78
2022-12-11T02:43:22.443Z,100770.16
2022-12-11T02:45:51.696Z,100779.97
2022-12-11T02:48:20.686Z,100787.84
2022-12-11T02:50:51.457Z,100798.03
2022-12-11T02:53:24.046Z,100797.78
2022-12-11T02:55:57.004Z,100808.75
2022-12-11T02:58:31.148Z,100814.16
2022-12-11T03:00:57.976Z,100804.09
2022-12-11T03:03:25.015Z,100807.38
2022-12-11T03:05:51.741Z,100804.28
2022-12-11T03:08:18.814Z,100791.16
2022-12-11T03:10:46.545Z,100777.50
2022-12-11T03:13:17.042Z,100807.56
2022-12-11T03:15:55.933Z,100807.56
2022-12-11T03:18:22.592Z,100799.97
2022-12-11T03:21:09.410Z,100783.38
2022-12-11T03:23:55.465Z,100777.59
2022-12-11T03:26:24.082Z,100796.75
2022-12-11T03:29:04.334Z,100803.59
2022-12-11T03:31:39.118Z,100802.25
2022-12-11T03:34:18.241Z,100779.16
2022-12-11T03:36:47.786Z,100784.47
2022-12-11T03:39:23.274Z,100765.03
2022-12-11T03:41:52.004Z,100766.78
2022-12-11T03:44:21.042Z,100794.81
2022-12-11T03:46:50.599Z,100766.38
2022-12-11T03:49:22.951Z,100773.00
2022-12-11T03:51:56.213Z,100792.78
2022-12-11T03:54:24.892Z,100781.34
2022-12-11T03:56:55.065Z,100755.13
2022-12-11T03:59:22.045Z,100782.88
2022-12-11T04:01:48.774Z,100777.31
2022-12-11T04:04:15.593Z,100773.81
2022-12-11T04:06:42.419Z,100783.91
2022-12-11T04:09:09.190Z,100782.81
2022-12-11T04:11:35.966Z,100780.94
2022-12-11T04:14:22.688Z,100784.34
2022-12-11T04:16:49.374Z,100778.38
2022-12-11T04:19:35.053Z,100780.03
2022-12-11T04:22:20.161Z,100783.22
2022-12-11T04:24:50.569Z,100786.44
2022-12-11T04:27:38.266Z,100788.09
2022-12-11T04:30:08.915Z,100784.41
2022-12-11T04:32:35.633Z,100754.63
2022-12-11T04:35:02.536Z,100767.94
2022-12-11T04:37:29.418Z,100769.47
2022-12-11T04:39:56.091Z,100748.66
2022-12-11T04:42:22.794Z,100771.66
2022-12-11T04:44:49.633Z,100771.66
2022-12-11T04:47:16.659Z,100770.47
2022-12-11T04:49:43.579Z,100754.16
2022-12-11T04:52:10.607Z,100755.09
2022-12-11T04:54:37.276Z,100771.38
2022-12-11T04:57:03.988Z,100771.47
2022-12-11T04:59:33.178Z,100772.09
2022-12-11T05:01:59.923Z,100750.59
2022-12-11T05:04:32.105Z,100768.81
2022-12-11T05:06:59.215Z,100772.03
2022-12-11T05:09:27.186Z,100760.34
2022-12-11T05:11:54.648Z,100751.84
2022-12-11T05:14:22.053Z,100724.34
2022-12-11T05:16:49.105Z,100741.66
2022-12-11T05:19:16.813Z,100754.84
2022-12-11T05:21:43.624Z,100753.75
2022-12-11T05:24:10.348Z,100755.38
2022-12-11T05:26:37.096Z,100744.66
2022-12-11T05:29:04.010Z,100748.03
2022-12-11T05:31:30.731Z,100742.00
2022-12-11T05:33:57.451Z,100753.75
2022-12-11T05:36:27.037Z,100752.81
2022-12-11T05:38:54.379Z,100759.41
2022-12-11T05:41:25.382Z,100759.50
2022-12-11T05:43:52.471Z,100752.81
2022-12-11T05:46:22.366Z,100758.38
2022-12-11T05:48:51.362Z,100744.81
2022-12-11T05:51:18.811Z,100749.84
2022-12-11T05:53:47.144Z,100759.94
2022-12-11T05:56:16.930Z,100749.84
2022-12-11T05:58:44.634Z,100746.84
2022-12-11T06:01:14.717Z,100762.41
2022-12-11T06:03:41.824Z,100749.22
2022-12-11T06:06:08.862Z,100761.41
2022-12-11T06:08:35.718Z,100722.03
2022-12-11T06:11:03.504Z,100748.53
2022-12-11T06:13:30.680Z,100756.44
2022-12-11T06:16:04.456Z,100740.78
2022-12-11T06:18:31.798Z,100739.16
2022-12-11T06:20:58.509Z,100741.59
2022-12-11T06:23:25.153Z,100738.09
2022-12-11T06:28:27.901Z,100745.44
2022-12-11T06:30:54.591Z,100745.44
2022-12-11T06:35:57.154Z,100730.66
2022-12-11T06:38:24.787Z,100624.00
2022-12-11T06:40:59.682Z,100637.75
2022-12-11T06:43:26.454Z,100742.47
2022-12-11T06:45:53.257Z,100687.91
2022-12-11T06:48:20.824Z,100732.19
2022-12-11T06:50:47.573Z,100739.72
2022-12-11T06:53:15.417Z,100738.97
2022-12-11T06:55:43.283Z,100739.91
2022-12-11T06:58:11.229Z,100707.56
2022-12-11T07:00:38.965Z,100729.91
2022-12-11T07:03:06.694Z,100744.88
2022-12-11T07:05:34.124Z,100751.66
2022-12-11T07:08:01.364Z,100731.38
2022-12-11T07:10:28.148Z,100716.53
2022-12-11T07:12:55.015Z,100744.38
2022-12-11T07:15:21.671Z,100730.38
2022-12-11T07:17:48.451Z,100709.94
2022-12-11T07:20:15.639Z,100741.47
2022-12-11T07:22:46.383Z,100686.78
2022-12-11T07:25:13.931Z,100738.78
2022-12-11T07:27:41.652Z,100726.41
2022-12-11T07:30:09.712Z,100731.50
2022-12-11T07:32:36.717Z,100754.44
2022-12-11T07:35:04.197Z,100695.13
2022-12-11T07:37:30.889Z,100727.78
2022-12-11T07:39:57.577Z,100712.13
2022-12-11T07:42:24.274Z,100719.63
2022-12-11T07:44:51.007Z,100660.13
2022-12-11T07:47:17.770Z,100666.06
2022-12-11T07:49:44.450Z,100734.28
2022-12-11T07:52:11.308Z,100743.25
2022-12-11T07:54:38.173Z,100724.28
2022-12-11T07:57:06.257Z,100744.91
2022-12-11T07:59:34.769Z,100741.81
2022-12-11T08:02:01.532Z,100735.00
2022-12-11T08:07:03.625Z,100745.41
2022-12-11T08:09:30.488Z,100704.63
2022-12-11T08:11:57.149Z,100741.28
2022-12-11T08:14:23.814Z,100725.03
2022-12-11T08:16:50.511Z,100737.31
2022-12-11T08:19:18.120Z,100716.81
2022-12-11T08:21:45.253Z,100741.84
2022-12-11T08:24:11.888Z,100723.41
2022-12-11T08:26:38.693Z,100724.97
2022-12-11T08:29:05.650Z,100735.88
2022-12-11T08:31:33.070Z,100716.63
2022-12-11T08:33:59.895Z,100721.56
2022-12-11T08:36:26.906Z,100682.84
2022-12-11T08:38:55.946Z,100673.56
2022-12-11T08:41:28.554Z,100756.19
2022-12-11T08:43:57.762Z,100750.81
2022-12-11T08:46:33.026Z,100698.94
2022-12-11T08:49:00.226Z,100728.75
2022-12-11T09:07:25.616Z,100720.38
2022-12-11T09:09:54.825Z,100745.16
2022-12-11T09:12:21.945Z,100740.66
2022-12-11T09:14:48.655Z,100741.38
2022-12-11T09:17:15.364Z,100738.91
2022-12-11T09:19:41.995Z,100747.34
2022-12-11T09:22:11.279Z,100738.91
2022-12-11T09:24:38.669Z,100737.25
2022-12-11T09:45:55.386Z,100713.38
2022-12-11T09:48:24.482Z,100722.97
2022-12-11T09:50:55.255Z,100718.53
2022-12-11T09:53:35.946Z,100694.44
2022-12-11T09:56:21.313Z,100715.63
2022-12-11T09:58:50.675Z,100720.72
2022-12-11T10:01:22.688Z,100712.06
2022-12-11T10:04:07.546Z,100717.91
2022-12-11T10:06:46.614Z,100703.28
2022-12-11T10:09:24.424Z,100697.31
2022-12-11T10:11:56.676Z,100721.91
2022-12-11T10:14:43.926Z,100709.28
2022-12-11T10:17:20.458Z,100720.78
2022-12-11T10:19:48.334Z,100715.84
2022-12-11T10:22:25.086Z,100704.41
2022-12-11T10:25:14.501Z,100725.22
2022-12-11T10:27:41.842Z,100692.41
2022-12-11T10:30:15.100Z,100726.13
2022-12-11T10:32:44.823Z,100722.66
2022-12-11T10:35:38.080Z,100721.09
2022-12-11T10:38:13.336Z,100733.56
2022-12-11T10:40:50.659Z,100730.16
2022-12-11T10:43:17.561Z,100728.44
2022-12-11T10:45:54.486Z,100732.72
2022-12-11T10:48:22.299Z,100702.88
2022-12-11T10:51:05.438Z,100715.00
2022-12-11T10:53:34.509Z,100727.56
2022-12-11T10:58:41.425Z,100695.25
2022-12-11T11:01:18.900Z,100710.78
2022-12-11T11:06:33.652Z,100704.72
2022-12-11T11:09:02.033Z,100694.84
2022-12-11T11:11:35.331Z,100722.41
2022-12-11T11:14:07.564Z,100717.19
2022-12-11T11:16:37.872Z,100712.84
2022-12-11T11:19:06.016Z,100691.34
2022-12-11T11:21:34.671Z,100700.28
2022-12-11T11:24:01.469Z,100694.31
2022-12-11T11:27:04.334Z,100700.34
2022-12-11T11:29:28.805Z,100683.09
2022-12-11T11:31:55.656Z,100685.66
2022-12-11T11:34:22.531Z,100688.03
2022-12-11T11:48:30.092Z,100681.91
2022-12-11T11:50:58.456Z,100679.34
2022-12-11T11:53:27.573Z,100684.38
2022-12-11T11:56:18.939Z,100688.50
2022-12-11T11:59:02.517Z,100684.28
2022-12-11T12:01:33.496Z,100683.56
2022-12-11T12:04:11.268Z,100627.28
2022-12-11T12:47:17.050Z,100622.66
2022-12-11T12:49:47.179Z,100666.19
2022-12-11T12:52:18.691Z,100669.69
2022-12-11T12:55:09.854Z,100633.47
2022-12-11T12:57:39.353Z,100669.06
2022-12-11T13:00:13.045Z,100657.53
2022-12-11T13:02:51.089Z,100666.50
2022-12-11T13:05:26.791Z,100661.66
2022-12-11T13:07:59.570Z,100657.97
2022-12-11T13:10:33.297Z,100646.63
2022-12-11T13:13:01.678Z,100657.34
2022-12-11T13:15:44.608Z,100658.28
2022-12-11T13:18:35.809Z,100657.47
2022-12-11T13:21:23.897Z,100659.09
2022-12-11T13:23:52.131Z,100646.75
2022-12-11T13:26:32.881Z,100657.13
2022-12-11T13:28:59.915Z,100633.25
2022-12-11T13:31:36.366Z,100637.16
2022-12-11T13:34:14.692Z,100652.19
2022-12-11T13:36:46.525Z,100658.28
2022-12-11T13:39:35.142Z,100661.56
2022-12-11T13:42:10.871Z,100664.13
2022-12-11T13:44:42.857Z,100649.97
2022-12-11T13:47:16.696Z,100660.88
2022-12-11T13:49:47.928Z,100668.16
2022-12-11T13:52:23.561Z,100671.56
2022-12-11T13:54:53.332Z,100653.25
2022-12-11T13:57:26.037Z,100648.63
2022-12-11T13:59:55.784Z,100606.44
2022-12-11T14:02:25.708Z,100676.38
2022-12-11T14:05:10.747Z,100595.03
2022-12-11T14:07:49.171Z,100667.34
2022-12-11T14:10:23.936Z,100652.66
2022-12-11T14:13:06.712Z,100669.91
2022-12-11T14:15:35.985Z,100665.69
2022-12-11T14:18:05.664Z,100672.59
2022-12-11T14:20:34.224Z,100679.91
2022-12-11T14:23:23.955Z,100674.88
2022-12-11T14:25:57.383Z,100671.78
2022-12-11T14:28:27.837Z,100654.59
2022-12-11T14:30:59.877Z,100670.94
2022-12-11T14:33:32.601Z,100663.53
2022-12-11T14:36:00.600Z,100660.97
2022-12-11T14:38:31.147Z,100675.19
2022-12-11T14:41:03.311Z,100677.63
2022-12-11T14:43:35.309Z,100660.38
2022-12-11T14:46:11.237Z,100680.34
2022-12-11T14:48:44.022Z,100674.25
2022-12-11T14:51:17.424Z,100665.19
2022-12-11T14:53:47.795Z,100666.22
2022-12-11T14:56:24.800Z,100673.63
2022-12-11T14:58:54.434Z,100675.25
2022-12-11T15:01:28.382Z,100671.25
2022-12-11T15:04:19.741Z,100685.56
2022-12-11T15:06:48.874Z,100680.41
2022-12-11T15:14:33.741Z,100667.34
2022-12-11T15:17:00.732Z,100663.16
2022-12-11T15:19:27.507Z,100680.53
2022-12-11T15:24:46.597Z,100650.69
2022-12-11T15:27:22.301Z,100680.66
2022-12-11T15:29:50.662Z,100666.03
2022-12-11T15:32:19.566Z,100685.78
2022-12-11T15:34:46.161Z,100684.94
2022-12-11T15:37:21.715Z,100682.38
2022-12-11T15:39:48.460Z,100683.53
2022-12-11T15:42:20.936Z,100674.38
2022-12-11T15:44:47.762Z,100672.13
2022-12-11T15:47:16.023Z,100692.09
2022-12-11T15:49:45.751Z,100677.47
2022-12-11T15:52:12.444Z,100685.69
2022-12-11T15:54:39.049Z,100703.28
2022-12-11T15:57:13.316Z,100698.38
2022-12-11T15:59:40.046Z,100690.72
2022-12-11T16:02:12.999Z,100703.50
2022-12-11T16:04:40.349Z,100696.09
2022-12-11T16:07:25.761Z,100669.03
2022-12-11T16:09:52.752Z,100707.09
2022-12-11T16:12:20.555Z,100696.09
2022-12-11T16:14:47.607Z,100710.41
2022-12-11T16:17:15.859Z,100691.97
2022-12-11T16:19:49.560Z,100697.13
2022-12-11T16:22:16.488Z,100651.56
2022-12-11T16:24:43.315Z,100694.75
2022-12-11T17:26:30.094Z,100701.34
2022-12-11T17:28:57.694Z,100684.69
2022-12-11T17:31:24.951Z,100697.25
2022-12-11T17:33:51.887Z,100698.25
2022-12-11T17:36:21.000Z,100671.81
2022-12-11T17:38:49.809Z,100666.75
2022-12-11T17:41:20.681Z,100693.31
2022-12-11T17:43:54.608Z,100690.13
2022-12-11T17:46:21.759Z,100647.00
2022-12-11T17:48:49.211Z,100681.69
2022-12-11T17:51:24.167Z,100707.53
2022-12-11T17:53:51.785Z,100680.44
2022-12-11T17:56:19.848Z,100681.88
2022-12-11T17:58:46.697Z,100683.56
2022-12-11T18:01:13.619Z,100682.81
2022-12-11T18:03:40.958Z,100674.16
2022-12-11T18:06:11.549Z,100692.09
2022-12-11T18:08:38.928Z,100696.09
2022-12-11T18:11:07.216Z,100696.19
2022-12-11T18:13:34.433Z,100708.16
2022-12-11T18:16:04.311Z,100700.63
2022-12-11T18:18:31.303Z,100709.28
2022-12-11T18:20:58.337Z,100686.44
2022-12-11T18:23:25.626Z,100702.38
2022-12-11T18:25:52.428Z,100675.91
2022-12-11T18:28:19.340Z,100681.56
2022-12-11T18:30:46.040Z,100702.16
2022-12-11T18:33:13.377Z,100697.84
2022-12-11T18:35:40.839Z,100690.22
2022-12-11T18:38:07.660Z,100716.16
2022-12-11T18:40:34.345Z,100710.91
2022-12-11T18:43:01.132Z,100703.59
2022-12-11T18:45:27.869Z,100701.03
2022-12-11T18:47:56.579Z,100695.16
2022-12-11T18:50:23.935Z,100714.50
2022-12-11T18:52:57.154Z,100697.75
2022-12-11T18:55:24.321Z,100703.00
2022-12-11T18:57:51.082Z,100697.31
2022-12-11T19:00:18.851Z,100714.81
2022-12-11T19:02:45.843Z,100692.16
2022-12-11T19:05:13.227Z,100717.19
2022-12-11T19:07:40.173Z,100682.72
2022-12-11T19:10:07.530Z,100695.19
2022-12-11T19:12:34.548Z,100703.50
2022-12-11T19:15:01.290Z,100717.72
2022-12-11T19:17:28.147Z,100698.38
2022-12-11T19:19:54.876Z,100712.69
2022-12-11T19:22:21.752Z,100716.88
2022-12-11T19:24:48.634Z,100711.94
2022-12-11T19:27:15.295Z,100676.22
2022-12-11T19:29:42.000Z,100707.03
2022-12-11T19:32:10.743Z,100689.59
2022-12-11T19:34:39.412Z,100691.97
2022-12-11T19:37:06.350Z,100690.34
2022-12-11T19:39:33.297Z,100706.16
2022-12-11T19:42:00.282Z,100708.44
2022-12-11T19:44:27.159Z,100707.31
2022-12-11T19:46:53.903Z,100683.75
2022-12-11T19:49:20.770Z,100686.13
2022-12-11T19:51:47.453Z,100680.44
2022-12-11T19:54:18.018Z,100679.41
2022-12-11T19:56:45.393Z,100717.91
2022-12-11T19:59:16.726Z,100689.72
2022-12-11T20:01:46.946Z,100691.03
2022-12-11T20:04:16.449Z,100705.88
2022-12-11T20:06:45.086Z,100709.38
2022-12-11T20:09:13.255Z,100711.22
2022-12-11T20:11:43.052Z,100696.94
2022-12-11T20:14:17.493Z,100585.91
2022-12-11T20:17:10.072Z,100597.59
2022-12-11T20:19:34.059Z,100709.38
2022-12-11T20:22:01.141Z,100672.50
2022-12-11T20:24:27.848Z,100703.72
2022-12-11T20:26:57.095Z,100715.25
2022-12-11T20:29:24.206Z,100717.19
2022-12-11T20:31:52.050Z,100698.75
2022-12-11T20:34:18.973Z,100710.41
2022-12-11T20:36:48.719Z,100706.47
2022-12-11T20:39:15.888Z,100700.75
2022-12-11T20:41:42.667Z,100704.94
2022-12-11T20:44:09.526Z,100702.88
2022-12-11T20:46:36.716Z,100688.06
2022-12-11T20:49:03.560Z,100717.00
2022-12-11T20:51:32.417Z,100706.41
2022-12-11T20:54:09.616Z,100680.97
2022-12-11T20:56:36.629Z,100712.75
2022-12-11T20:59:03.628Z,100631.34
2022-12-11T21:01:32.397Z,100657.50
2022-12-11T21:04:08.963Z,100643.06
2022-12-11T21:06:38.896Z,100714.00
2022-12-11T21:09:10.872Z,100648.53
2022-12-11T21:11:37.714Z,100709.78
2022-12-11T21:14:07.066Z,100686.00
2022-12-11T21:16:34.955Z,100576.91
2022-12-11T21:19:16.866Z,100718.44
2022-12-11T21:21:46.403Z,100709.34
2022-12-11T21:24:23.222Z,100692.28
2022-12-11T21:26:50.224Z,100704.75
2022-12-11T21:29:17.334Z,100690.31
2022-12-11T21:31:46.316Z,100716.06
2022-12-11T21:34:14.188Z,100686.50
2022-12-11T21:36:43.721Z,100700.59
2022-12-11T21:39:12.476Z,100721.19
2022-12-11T21:41:40.875Z,100720.38
2022-12-11T21:46:54.631Z,100713.47
2022-12-11T21:49:21.433Z,100694.53
2022-12-11T21:51:48.158Z,100685.59
2022-12-11T21:54:17.928Z,100700.31
2022-12-11T21:56:47.146Z,100715.31
2022-12-11T21:59:14.249Z,100702.06
2022-12-11T22:01:42.698Z,100721.19
2022-12-11T22:04:10.846Z,100718.13
2022-12-11T22:06:37.643Z,100729.75
2022-12-11T22:09:05.415Z,100698.97
2022-12-11T22:11:34.272Z,100701.31
2022-12-11T22:14:01.567Z,100724.59
2022-12-11T22:16:28.894Z,100734.38
2022-12-11T22:18:55.616Z,100715.44
2022-12-11T22:21:22.383Z,100722.84
2022-12-11T22:23:49.216Z,100708.84
2022-12-11T22:26:21.909Z,100718.44
2022-12-11T22:28:49.290Z,100724.41
2022-12-11T22:31:19.788Z,100718.50
2022-12-11T22:33:47.433Z,100732.81
2022-12-11T22:36:14.197Z,100711.94
2022-12-11T22:38:40.969Z,100719.13
2022-12-11T22:41:22.358Z,100724.91
2022-12-11T22:43:49.586Z,100701.13
2022-12-11T22:46:18.008Z,100723.47
2022-12-11T22:48:44.877Z,100715.00
2022-12-11T22:51:12.039Z,100735.09
2022-12-11T22:53:38.781Z,100677.97
2022-12-11T22:56:07.317Z,100714.94
2022-12-11T22:58:35.818Z,100718.31
2022-12-11T23:01:03.479Z,100685.38
2022-12-11T23:03:30.331Z,100680.16
2022-12-11T23:06:00.768Z,100721.22
2022-12-11T23:08:30.160Z,100737.16
2022-12-11T23:10:56.950Z,100720.69
2022-12-11T23:13:23.588Z,100732.13
2022-12-11T23:15:50.273Z,100672.19
2022-12-11T23:18:16.953Z,100726.47
2022-12-11T23:20:43.796Z,100728.94
2022-12-11T23:23:11.218Z,100719.03
2022-12-11T23:25:37.873Z,100724.91
2022-12-11T23:28:04.677Z,100699.28
2022-12-11T23:30:31.439Z,100712.66
2022-12-11T23:32:58.164Z,100729.25
2022-12-11T23:35:24.842Z,100735.22
2022-12-11T23:37:51.569Z,100741.06
2022-12-11T23:40:18.267Z,100736.44
2022-12-11T23:42:44.931Z,100727.06
2022-12-11T23:45:11.991Z,100726.22
2022-12-11T23:47:38.835Z,100744.47
2022-12-11T23:50:05.934Z,100708.31
2022-12-11T23:52:32.681Z,100732.81
2022-12-11T23:54:59.373Z,100737.03
2022-12-11T23:57:26.067Z,100752.78
2022-12-11T23:59:52.843Z,100732.75
